Time;durP1;ratioP1;P1;durP2;ratioP2;P2;SDS_P1;SDS_P2;PMS_P1;PMS_P2;Temp;Humidity;BMP_temperature;BMP_pressure;BME280_temperature;BME280_humidity;BME280_pressure;Samples;Min_cycle;Max_cycle;Signal;HPM_P1;HPM_P2
2021/01/29 00:01:47;;;;;;;0.70;0.50;;;10.50;99.90;;;;;;5096507;28;20451;-85
2021/01/29 00:04:13;;;;;;;0.80;0.80;;;10.50;99.90;;;;;;5094671;28;21070;-85
2021/01/29 00:06:39;;;;;;;0.63;0.50;;;10.60;99.90;;;;;;5096255;28;20520;-87
2021/01/29 00:09:06;;;;;;;2.10;0.90;;;10.50;99.90;;;;;;5096522;28;20450;-87
2021/01/29 00:11:32;;;;;;;1.60;0.80;;;10.50;99.90;;;;;;5096055;28;20537;-87
2021/01/29 00:13:59;;;;;;;1.27;0.70;;;10.40;99.90;;;;;;5096024;28;21248;-86
2021/01/29 00:16:26;;;;;;;1.20;0.63;;;10.40;99.90;;;;;;5095254;28;20537;-83
2021/01/29 00:18:52;;;;;;;0.90;0.67;;;10.30;99.90;;;;;;5095490;28;20518;-87
2021/01/29 00:21:19;;;;;;;0.83;0.80;;;10.30;99.90;;;;;;5094121;28;20443;-86
2021/01/29 00:23:45;;;;;;;0.80;0.80;;;10.30;99.90;;;;;;5094936;28;20490;-85
2021/01/29 00:26:12;;;;;;;1.27;0.80;;;10.20;99.90;;;;;;5096108;28;20543;-85
2021/01/29 00:28:38;;;;;;;1.50;0.80;;;10.20;99.90;;;;;;5095887;28;20477;-86
2021/01/29 00:31:05;;;;;;;1.00;0.90;;;10.10;99.90;;;;;;5094808;28;20497;-85
2021/01/29 00:33:32;;;;;;;1.00;0.73;;;10.10;99.90;;;;;;5095839;28;20663;-85
2021/01/29 00:35:59;;;;;;;0.70;0.70;;;10.10;99.90;;;;;;5094203;28;20482;-86
2021/01/29 00:38:25;;;;;;;1.90;0.80;;;10.00;99.90;;;;;;5095046;28;20550;-86
2021/01/29 00:40:52;;;;;;;3.63;0.90;;;10.00;99.90;;;;;;5095236;28;20459;-87
2021/01/29 00:43:18;;;;;;;2.00;1.00;;;9.90;99.90;;;;;;5095239;28;20553;-86
2021/01/29 00:45:46;;;;;;;0.70;0.70;;;9.90;99.90;;;;;;5094774;28;20443;-85
2021/01/29 00:48:12;;;;;;;1.47;1.00;;;9.90;99.90;;;;;;5094597;28;20447;-85
2021/01/29 00:50:40;;;;;;;0.80;0.77;;;9.70;99.90;;;;;;5092380;28;20963;-86
2021/01/29 00:53:08;;;;;;;0.87;0.80;;;9.60;99.90;;;;;;5094136;28;20884;-86
2021/01/29 00:55:35;;;;;;;0.90;0.80;;;9.60;99.90;;;;;;5093475;28;20439;-86
2021/01/29 00:58:01;;;;;;;2.60;1.00;;;9.50;99.90;;;;;;5094603;28;20447;-85
2021/01/29 01:00:28;;;;;;;1.20;1.00;;;9.60;99.90;;;;;;5094375;28;20879;-85
2021/01/29 01:02:54;;;;;;;4.10;1.77;;;9.50;99.90;;;;;;5093981;28;20566;-85
2021/01/29 01:05:22;;;;;;;3.17;1.97;;;9.50;99.90;;;;;;5093135;28;20439;-86
2021/01/29 01:07:50;;;;;;;2.20;1.33;;;9.60;99.90;;;;;;5093906;28;20453;-86
2021/01/29 01:10:18;;;;;;;1.30;0.90;;;9.50;99.90;;;;;;5094044;28;20892;-85
2021/01/29 01:12:44;;;;;;;0.73;0.73;;;9.60;99.90;;;;;;5094184;28;20446;-86
2021/01/29 01:15:15;;;;;;;1.33;1.20;;;9.60;99.90;;;;;;5094120;28;20459;-85
2021/01/29 01:17:41;;;;;;;0.83;0.77;;;9.60;99.90;;;;;;5094086;28;20856;-85
2021/01/29 01:20:10;;;;;;;0.70;0.70;;;9.60;99.90;;;;;;5092442;28;20586;-86
2021/01/29 01:22:37;;;;;;;0.97;0.97;;;9.60;99.90;;;;;;5093822;28;20458;-87
2021/01/29 01:25:05;;;;;;;0.77;0.77;;;9.60;99.90;;;;;;5094105;28;20588;-85
2021/01/29 01:27:32;;;;;;;0.67;0.67;;;9.60;99.90;;;;;;5093851;28;20541;-86
2021/01/29 01:29:58;;;;;;;0.80;0.70;;;9.60;99.90;;;;;;5093578;28;20455;-87
2021/01/29 01:32:24;;;;;;;0.70;0.70;;;9.60;99.90;;;;;;5093921;28;20570;-86
2021/01/29 01:34:52;;;;;;;2.60;0.87;;;9.60;99.90;;;;;;5092935;28;20508;-88
2021/01/29 01:37:18;;;;;;;1.03;0.83;;;9.60;99.90;;;;;;5093551;28;20478;-87
2021/01/29 01:39:44;;;;;;;1.03;0.87;;;9.70;99.90;;;;;;5093651;28;20494;-90
2021/01/29 01:42:12;;;;;;;1.10;0.93;;;9.70;99.90;;;;;;5093378;28;20446;-89
2021/01/29 01:44:40;;;;;;;3.10;0.77;;;9.60;99.90;;;;;;5093506;28;20494;-90
2021/01/29 01:47:18;;;;;;;1.23;1.13;;;9.60;99.90;;;;;;5093595;28;20487;-91
2021/01/29 01:49:46;;;;;;;0.90;0.90;;;9.50;99.90;;;;;;5092642;28;20478;-90
2021/01/29 01:52:18;;;;;;;1.10;1.00;;;9.40;99.90;;;;;;5092342;28;20462;-88
2021/01/29 01:54:52;;;;;;;1.83;1.03;;;9.40;99.90;;;;;;5093894;28;20479;-90
2021/01/29 01:57:23;;;;;;;1.77;1.00;;;9.30;99.90;;;;;;5088500;28;20451;-90
2021/01/29 01:59:53;;;;;;;1.17;1.00;;;9.30;99.90;;;;;;5091256;28;20558;-91
2021/01/29 02:02:25;;;;;;;1.10;1.00;;;9.30;99.90;;;;;;5093288;28;20463;-89
2021/01/29 02:04:55;;;;;;;0.77;0.73;;;9.40;99.90;;;;;;5092200;28;20458;-88
2021/01/29 02:07:30;;;;;;;0.80;0.73;;;9.40;99.90;;;;;;5092587;28;20543;-89
2021/01/29 02:09:58;;;;;;;0.93;0.83;;;9.30;99.90;;;;;;5090618;28;20953;-89
2021/01/29 02:12:25;;;;;;;1.70;0.90;;;9.30;99.90;;;;;;5093519;28;20442;-88
2021/01/29 02:14:52;;;;;;;1.37;0.93;;;9.40;99.90;;;;;;5093476;28;20450;-88
2021/01/29 02:17:51;;;;;;;1.60;0.90;;;9.30;99.90;;;;;;5093977;28;20547;-88
2021/01/29 02:20:51;;;;;;;1.53;0.90;;;9.30;99.90;;;;;;5089799;28;20577;-87
2021/01/29 02:24:03;;;;;;;0.90;0.90;;;9.30;99.90;;;;;;5093140;28;20935;-87
2021/01/29 02:26:57;;;;;;;3.40;1.07;;;9.20;99.90;;;;;;5051056;28;20550;-88
2021/01/29 02:29:44;;;;;;;2.00;1.10;;;9.20;99.90;;;;;;5087727;28;20542;-88
2021/01/29 02:32:39;;;;;;;0.80;0.80;;;9.20;99.90;;;;;;5089099;28;20452;-86
2021/01/29 02:35:37;;;;;;;1.03;0.70;;;9.20;99.90;;;;;;5092286;28;20533;-89
2021/01/29 02:38:38;;;;;;;1.23;0.80;;;9.20;99.90;;;;;;5059244;28;20454;-88
2021/01/29 02:41:12;;;;;;;1.00;0.90;;;9.20;99.90;;;;;;5090386;28;21033;-87
2021/01/29 02:43:57;;;;;;;0.97;0.97;;;9.20;99.90;;;;;;5093376;28;20447;-86
2021/01/29 02:46:30;;;;;;;0.73;0.70;;;9.30;99.90;;;;;;5093504;28;20903;-87
2021/01/29 02:49:03;;;;;;;0.77;0.77;;;9.30;99.90;;;;;;5099349;28;20494;-89
2021/01/29 02:51:38;;;;;;;0.90;0.80;;;9.20;99.90;;;;;;5092035;28;20508;-88
2021/01/29 02:54:12;;;;;;;0.50;0.50;;;9.30;99.90;;;;;;5094769;28;20533;-92
2021/01/29 02:56:45;;;;;;;1.63;0.90;;;9.40;99.90;;;;;;5094307;28;20453;-89
2021/01/29 02:59:17;;;;;;;1.00;0.70;;;9.30;99.90;;;;;;5094874;28;20528;-90
2021/01/29 03:01:49;;;;;;;0.70;0.70;;;9.30;99.90;;;;;;5091761;28;20447;-93
2021/01/29 03:04:21;;;;;;;0.80;0.80;;;9.30;99.90;;;;;;5095710;28;20631;-85
2021/01/29 03:06:53;;;;;;;1.43;0.77;;;9.30;99.90;;;;;;5096292;28;20542;-94
2021/01/29 03:09:26;;;;;;;1.20;1.10;;;9.30;99.90;;;;;;5095758;28;20804;-94
2021/01/29 03:11:58;;;;;;;1.17;0.57;;;9.30;99.90;;;;;;5097160;28;20880;-91
2021/01/29 03:14:29;;;;;;;1.60;0.60;;;9.40;99.90;;;;;;5097940;28;20929;-95
2021/01/29 03:17:02;;;;;;;0.70;0.70;;;9.40;99.90;;;;;;5096293;28;20462;-92
2021/01/29 03:19:32;;;;;;;0.70;0.60;;;9.40;99.90;;;;;;5109936;28;20574;-92
2021/01/29 03:22:03;;;;;;;0.60;0.60;;;9.50;99.90;;;;;;5102245;28;20451;-91
2021/01/29 03:24:35;;;;;;;0.70;0.70;;;9.50;99.90;;;;;;5100691;28;20448;-86
2021/01/29 03:27:06;;;;;;;0.50;0.50;;;9.50;99.90;;;;;;5095996;28;20444;-90
2021/01/29 03:29:38;;;;;;;1.13;0.70;;;9.60;99.90;;;;;;5102001;28;20447;-87
2021/01/29 03:32:07;;;;;;;0.70;0.60;;;9.60;99.90;;;;;;5101618;28;20420;-90
2021/01/29 03:34:39;;;;;;;0.67;0.47;;;9.50;99.90;;;;;;5099429;28;20467;-86
2021/01/29 03:37:13;;;;;;;0.63;0.63;;;9.60;99.90;;;;;;5098478;28;20431;-91
2021/01/29 03:40:09;;;;;;;1.33;0.50;;;9.60;99.90;;;;;;5088961;28;21013;-93
2021/01/29 03:42:41;;;;;;;0.50;0.50;;;9.60;99.90;;;;;;5083282;28;20526;-93
2021/01/29 03:45:16;;;;;;;0.53;0.53;;;9.60;99.90;;;;;;5078986;28;21001;-94
2021/01/29 03:47:54;;;;;;;1.00;0.40;;;9.70;99.90;;;;;;5077415;28;21030;-93
2021/01/29 03:50:28;;;;;;;0.90;0.60;;;9.70;99.90;;;;;;5071929;28;20444;-91
2021/01/29 03:53:06;;;;;;;1.40;0.80;;;9.80;99.90;;;;;;5078551;28;20582;-91
2021/01/29 03:55:40;;;;;;;0.50;0.50;;;9.80;99.90;;;;;;5087959;28;20451;-92
2021/01/29 03:58:12;;;;;;;0.50;0.40;;;9.70;99.90;;;;;;5097163;28;20529;-92
2021/01/29 04:00:42;;;;;;;0.47;0.47;;;9.60;99.90;;;;;;5086191;28;20491;-91
2021/01/29 04:03:17;;;;;;;0.60;0.50;;;9.70;99.90;;;;;;5078249;28;20602;-95
2021/01/29 04:05:55;;;;;;;0.67;0.50;;;9.60;99.90;;;;;;5081343;28;20907;-94
2021/01/29 04:08:28;;;;;;;0.60;0.60;;;9.70;99.90;;;;;;5082393;28;20517;-90
2021/01/29 04:10:59;;;;;;;0.77;0.50;;;9.70;99.90;;;;;;5078271;28;20466;-94
2021/01/29 04:13:33;;;;;;;0.83;0.70;;;9.80;99.90;;;;;;5076332;28;20854;-88
2021/01/29 04:15:59;;;;;;;0.60;0.60;;;9.70;99.90;;;;;;5075708;28;20461;-90
2021/01/29 04:18:29;;;;;;;0.63;0.60;;;9.70;99.90;;;;;;5075183;28;20451;-88
2021/01/29 04:21:01;;;;;;;1.23;0.87;;;9.70;99.90;;;;;;5079550;28;20543;-89
2021/01/29 04:23:33;;;;;;;0.50;0.50;;;9.70;99.90;;;;;;5095985;28;20482;-90
2021/01/29 04:26:06;;;;;;;0.50;0.50;;;9.60;99.90;;;;;;5096490;28;21024;-86
2021/01/29 04:28:37;;;;;;;0.70;0.50;;;9.70;99.90;;;;;;5095701;28;20527;-91
2021/01/29 04:31:06;;;;;;;0.60;0.60;;;9.60;99.90;;;;;;5095238;28;20493;-91
2021/01/29 04:33:38;;;;;;;0.80;0.80;;;9.60;99.90;;;;;;5094705;28;20483;-90
2021/01/29 04:36:07;;;;;;;0.90;0.70;;;9.60;99.90;;;;;;5093502;28;20487;-89
2021/01/29 04:38:40;;;;;;;1.90;0.77;;;9.60;99.90;;;;;;5095466;28;20945;-89
2021/01/29 04:41:19;;;;;;;1.27;1.17;;;9.60;99.90;;;;;;5095310;28;20501;-91
2021/01/29 04:44:16;;;;;;;0.50;0.50;;;9.50;99.90;;;;;;5096497;28;20533;-89
2021/01/29 04:46:59;;;;;;;1.27;0.97;;;9.50;99.90;;;;;;5094355;28;20546;-92
2021/01/29 04:49:38;;;;;;;1.33;0.67;;;9.40;99.90;;;;;;5088831;28;20640;-91
2021/01/29 04:52:48;;;;;;;1.27;0.90;;;9.40;99.90;;;;;;5094564;28;20542;-91
2021/01/29 04:56:06;;;;;;;1.00;0.60;;;9.30;99.90;;;;;;5094872;28;20449;-91
2021/01/29 04:58:38;;;;;;;1.33;0.97;;;9.20;99.90;;;;;;5094896;28;20553;-90
2021/01/29 05:01:35;;;;;;;1.10;0.80;;;9.20;99.90;;;;;;5097364;28;20562;-91
2021/01/29 05:04:30;;;;;;;1.00;0.70;;;9.20;99.90;;;;;;5095049;28;20844;-85
2021/01/29 05:07:19;;;;;;;1.27;1.10;;;9.20;99.90;;;;;;5091341;28;20937;-89
2021/01/29 05:10:09;;;;;;;0.90;0.90;;;9.30;99.90;;;;;;5092798;28;20458;-91
2021/01/29 05:12:53;;;;;;;1.07;0.80;;;9.30;99.90;;;;;;5094420;28;20533;-88
2021/01/29 05:16:03;;;;;;;1.30;0.90;;;9.30;99.90;;;;;;5094315;28;21030;-87
2021/01/29 05:19:11;;;;;;;0.50;0.50;;;9.30;99.90;;;;;;5055436;28;20537;-90
2021/01/29 05:21:58;;;;;;;0.93;0.70;;;9.30;99.90;;;;;;5093976;28;20569;-89
2021/01/29 05:25:07;;;;;;;0.70;0.60;;;9.30;99.90;;;;;;5092668;28;20539;-92
2021/01/29 05:28:09;;;;;;;2.10;0.60;;;9.20;99.90;;;;;;5093951;28;21021;-89
2021/01/29 05:30:51;;;;;;;0.60;0.60;;;9.20;99.90;;;;;;5094184;28;20525;-90
2021/01/29 05:33:37;;;;;;;0.50;0.50;;;9.30;99.90;;;;;;5093924;28;20537;-87
2021/01/29 05:36:25;;;;;;;0.70;0.40;;;9.30;99.90;;;;;;5092572;28;20962;-90
2021/01/29 05:39:15;;;;;;;2.60;1.50;;;9.30;99.90;;;;;;5093860;28;21056;-88
2021/01/29 05:42:02;;;;;;;0.50;0.43;;;9.30;99.90;;;;;;5093172;28;20466;-87
2021/01/29 05:45:05;;;;;;;1.10;0.50;;;9.30;99.90;;;;;;5100696;28;20533;-84
2021/01/29 05:48:07;;;;;;;1.37;0.53;;;9.30;99.90;;;;;;5094624;28;20537;-88
2021/01/29 05:50:52;;;;;;;1.67;0.50;;;9.20;99.90;;;;;;5092260;28;20541;-87
2021/01/29 05:53:55;;;;;;;0.50;0.50;;;9.20;99.90;;;;;;5092402;28;20561;-87
2021/01/29 05:56:33;;;;;;;3.00;0.93;;;9.20;99.90;;;;;;5093478;28;20934;-87
2021/01/29 05:59:20;;;;;;;0.83;0.73;;;9.20;99.90;;;;;;5093540;28;20453;-87
2021/01/29 06:02:15;;;;;;;1.93;0.60;;;9.10;99.90;;;;;;5094029;28;20527;-91
2021/01/29 06:05:11;;;;;;;0.50;0.47;;;9.10;99.90;;;;;;5075486;28;20538;-88
2021/01/29 06:08:26;;;;;;;0.60;0.60;;;9.00;99.90;;;;;;5093030;28;20450;-88
2021/01/29 06:11:15;;;;;;;1.83;1.30;;;9.00;99.90;;;;;;5057457;28;20958;-84
2021/01/29 06:14:11;;;;;;;1.70;0.57;;;9.00;99.90;;;;;;5093242;28;20583;-91
2021/01/29 06:17:17;;;;;;;1.70;0.60;;;9.00;99.90;;;;;;5048715;28;20458;-87
2021/01/29 06:20:05;;;;;;;1.63;0.60;;;9.00;99.90;;;;;;5090887;28;20494;-89
2021/01/29 06:23:09;;;;;;;0.93;0.70;;;9.00;99.90;;;;;;5093094;28;20985;-89
2021/01/29 06:26:05;;;;;;;0.70;0.50;;;9.10;99.90;;;;;;5086323;28;20534;-83
2021/01/29 06:29:00;;;;;;;0.80;0.60;;;9.10;99.90;;;;;;5090470;28;20939;-87
2021/01/29 06:32:11;;;;;;;0.60;0.50;;;9.10;99.90;;;;;;5076499;28;20467;-87
2021/01/29 06:35:11;;;;;;;2.40;0.53;;;9.10;99.90;;;;;;5054638;28;20606;-93
2021/01/29 06:37:57;;;;;;;1.37;1.13;;;9.10;99.90;;;;;;5093059;28;20443;-89
2021/01/29 06:40:29;;;;;;;0.70;0.63;;;9.10;99.90;;;;;;5092696;28;20863;-87
2021/01/29 06:43:26;;;;;;;0.73;0.70;;;9.10;99.90;;;;;;5087934;28;20453;-90
2021/01/29 06:46:43;;;;;;;0.70;0.70;;;9.20;99.90;;;;;;5075795;28;20550;-90
2021/01/29 06:49:57;;;;;;;2.53;0.87;;;9.20;99.90;;;;;;5013600;28;20503;-88
2021/01/29 06:52:54;;;;;;;5.00;4.00;;;9.20;99.90;;;;;;5065600;28;20543;-85
2021/01/29 06:55:39;;;;;;;0.87;0.80;;;9.20;99.90;;;;;;5047725;28;20455;-92
2021/01/29 06:58:44;;;;;;;1.00;0.60;;;9.20;99.90;;;;;;5079157;28;20487;-92
2021/01/29 07:01:43;;;;;;;2.70;0.60;;;9.20;99.90;;;;;;5067046;28;20501;-93
2021/01/29 07:04:46;;;;;;;0.70;0.43;;;9.20;99.90;;;;;;5046777;28;21029;-87
2021/01/29 07:07:20;;;;;;;0.50;0.50;;;9.30;99.90;;;;;;5078649;28;20443;-92
2021/01/29 07:10:02;;;;;;;1.00;0.60;;;9.30;99.90;;;;;;5077000;28;20919;-85
2021/01/29 07:12:36;;;;;;;0.63;0.60;;;9.40;99.90;;;;;;5076418;28;20507;-82
2021/01/29 07:15:23;;;;;;;0.67;0.67;;;9.50;99.90;;;;;;5076332;28;20926;-87
2021/01/29 07:18:13;;;;;;;0.80;0.67;;;9.60;99.90;;;;;;5076032;28;20487;-84
2021/01/29 07:20:48;;;;;;;0.83;0.60;;;9.80;99.90;;;;;;5074281;28;20609;-84
2021/01/29 07:23:46;;;;;;;0.90;0.80;;;9.80;99.90;;;;;;5079002;28;20489;-83
2021/01/29 07:26:26;;;;;;;0.60;0.57;;;9.80;99.90;;;;;;5096526;28;20447;-82
2021/01/29 07:29:08;;;;;;;0.67;0.67;;;9.80;99.90;;;;;;5097056;28;20449;-87
2021/01/29 07:31:44;;;;;;;1.37;0.60;;;9.80;99.90;;;;;;5098339;28;20455;-88
2021/01/29 07:34:23;;;;;;;1.63;1.53;;;9.80;99.90;;;;;;5112744;28;20451;-88
2021/01/29 07:37:26;;;;;;;0.50;0.40;;;9.90;99.90;;;;;;5116525;28;20447;-85
2021/01/29 07:40:20;;;;;;;2.67;0.90;;;9.90;99.90;;;;;;5099818;28;20971;-86
2021/01/29 07:43:05;;;;;;;1.50;1.40;;;10.00;99.90;;;;;;5103607;28;20432;-85
2021/01/29 07:45:39;;;;;;;0.67;0.50;;;10.00;99.90;;;;;;5098533;28;20450;-83
2021/01/29 07:48:30;;;;;;;0.40;0.40;;;10.10;99.90;;;;;;5088309;28;20481;-79
2021/01/29 07:51:02;;;;;;;1.37;1.20;;;10.20;99.90;;;;;;5074288;28;20821;-82
2021/01/29 07:53:36;;;;;;;0.60;0.60;;;10.10;99.90;;;;;;5080751;28;20859;-85
2021/01/29 07:56:19;;;;;;;1.40;1.30;;;10.20;99.90;;;;;;5096814;28;20950;-85
2021/01/29 07:58:57;;;;;;;2.07;1.00;;;10.20;99.90;;;;;;5095794;28;20584;-85
2021/01/29 08:01:48;;;;;;;0.80;0.80;;;10.20;99.90;;;;;;5095655;28;21073;-84
2021/01/29 08:04:31;;;;;;;1.73;1.40;;;10.20;99.90;;;;;;5094153;28;20577;-88
2021/01/29 08:07:06;;;;;;;1.50;1.40;;;10.20;99.90;;;;;;5095819;28;20688;-90
2021/01/29 08:09:36;;;;;;;1.07;0.77;;;10.10;99.90;;;;;;5095655;28;20482;-85
2021/01/29 08:12:09;;;;;;;1.17;0.70;;;10.20;99.90;;;;;;5091220;28;20484;-85
2021/01/29 08:15:04;;;;;;;0.70;0.60;;;10.30;99.90;;;;;;5095569;28;20531;-84
2021/01/29 08:18:15;;;;;;;0.70;0.70;;;10.30;99.90;;;;;;5095429;28;20465;-85
2021/01/29 08:21:06;;;;;;;2.87;2.20;;;10.40;99.90;;;;;;5085037;28;20502;-85
2021/01/29 08:23:43;;;;;;;1.47;0.90;;;10.50;99.90;;;;;;5095059;28;20447;-86
2021/01/29 08:26:34;;;;;;;6.20;3.87;;;10.50;99.90;;;;;;5095325;28;20576;-90
2021/01/29 08:29:39;;;;;;;2.27;1.80;;;10.60;99.90;;;;;;5095491;28;20917;-87
2021/01/29 08:32:56;;;;;;;1.33;1.00;;;10.60;99.90;;;;;;5095440;28;20596;-88
2021/01/29 08:35:48;;;;;;;1.00;0.97;;;10.70;99.90;;;;;;5093708;28;20541;-88
2021/01/29 08:38:23;;;;;;;1.33;0.60;;;10.70;99.90;;;;;;5099360;28;20585;-87
2021/01/29 08:40:55;;;;;;;1.80;1.10;;;10.80;99.90;;;;;;5095094;28;20533;-84
2021/01/29 08:44:00;;;;;;;0.90;0.80;;;10.70;99.90;;;;;;5094781;28;20489;-84
2021/01/29 08:46:41;;;;;;;0.53;0.40;;;10.80;99.90;;;;;;5094914;28;20482;-86
2021/01/29 08:49:32;;;;;;;1.03;0.60;;;10.80;99.90;;;;;;5094573;28;20447;-84
2021/01/29 08:52:10;;;;;;;0.87;0.70;;;10.80;99.90;;;;;;5093245;28;20467;-84
2021/01/29 08:54:47;;;;;;;0.77;0.63;;;10.90;99.90;;;;;;5094898;28;20972;-86
2021/01/29 08:57:21;;;;;;;0.40;0.40;;;10.80;99.90;;;;;;5095172;28;20538;-86
2021/01/29 08:59:49;;;;;;;0.80;0.77;;;10.60;99.90;;;;;;5092495;28;20561;-92
2021/01/29 09:02:27;;;;;;;1.50;1.30;;;10.60;99.90;;;;;;5094254;28;20493;-81
2021/01/29 09:04:59;;;;;;;0.60;0.60;;;10.50;99.90;;;;;;5092828;28;20447;-83
2021/01/29 09:07:29;;;;;;;1.40;0.87;;;10.40;99.90;;;;;;5094308;28;20461;-85
2021/01/29 09:10:14;;;;;;;0.70;0.70;;;10.40;99.90;;;;;;5094400;28;20546;-87
2021/01/29 09:12:42;;;;;;;1.07;0.67;;;10.60;99.90;;;;;;5094244;28;20451;-86
2021/01/29 09:15:17;;;;;;;1.77;1.10;;;10.70;99.90;;;;;;5093578;28;20451;-84
2021/01/29 09:17:48;;;;;;;0.67;0.67;;;10.90;99.90;;;;;;5094060;28;20818;-88
2021/01/29 09:20:25;;;;;;;1.50;1.07;;;11.10;99.90;;;;;;5093268;28;20482;-81
2021/01/29 09:22:56;;;;;;;0.70;0.70;;;11.20;99.90;;;;;;5093211;28;20497;-84
2021/01/29 09:25:30;;;;;;;0.73;0.60;;;11.30;99.90;;;;;;5093925;28;20451;-88
2021/01/29 09:28:08;;;;;;;0.50;0.40;;;11.50;99.90;;;;;;5093956;28;20454;-81
2021/01/29 09:30:39;;;;;;;0.60;0.60;;;11.60;99.90;;;;;;5093644;28;20982;-83
2021/01/29 09:33:18;;;;;;;0.50;0.50;;;11.80;99.90;;;;;;5094099;28;20542;-84
2021/01/29 09:35:55;;;;;;;1.67;0.90;;;11.80;99.90;;;;;;5092027;28;20443;-83
2021/01/29 09:38:26;;;;;;;1.10;0.90;;;11.70;99.90;;;;;;5093337;28;20446;-84
2021/01/29 09:41:02;;;;;;;1.83;0.70;;;11.60;99.90;;;;;;5093441;28;20490;-82
2021/01/29 09:44:00;;;;;;;0.70;0.53;;;11.50;99.90;;;;;;5088224;28;20783;-83
2021/01/29 09:46:30;;;;;;;1.07;0.80;;;11.40;99.90;;;;;;5072738;28;20547;-83
2021/01/29 09:49:01;;;;;;;3.20;0.77;;;11.50;99.90;;;;;;5093383;28;20540;-83
2021/01/29 09:52:00;;;;;;;2.70;0.60;;;11.70;99.90;;;;;;5092066;28;20466;-82
2021/01/29 09:54:36;;;;;;;1.57;0.80;;;11.80;99.90;;;;;;5079773;28;20465;-83
2021/01/29 09:57:09;;;;;;;1.03;0.63;;;11.80;99.90;;;;;;5093322;28;20599;-84
2021/01/29 09:59:42;;;;;;;2.60;0.70;;;11.80;99.90;;;;;;5093359;28;20578;-83
2021/01/29 10:02:19;;;;;;;2.13;0.63;;;11.60;99.90;;;;;;5093072;28;20530;-82
2021/01/29 10:05:13;;;;;;;4.63;1.13;;;11.60;99.90;;;;;;5091817;28;20542;-81
2021/01/29 10:07:46;;;;;;;9.33;5.60;;;11.50;99.90;;;;;;5090400;28;20508;-81
2021/01/29 10:10:26;;;;;;;0.93;0.83;;;11.60;99.90;;;;;;5093428;28;20887;-83
2021/01/29 10:12:57;;;;;;;1.47;1.10;;;11.60;99.90;;;;;;5093281;28;20525;-84
2021/01/29 10:15:27;;;;;;;2.07;1.20;;;11.70;99.90;;;;;;5092918;28;20537;-83
2021/01/29 10:18:01;;;;;;;2.30;1.20;;;11.90;99.90;;;;;;5092947;28;20531;-82
2021/01/29 10:20:31;;;;;;;1.00;0.90;;;11.80;99.90;;;;;;5091810;28;20505;-80
2021/01/29 10:23:17;;;;;;;2.10;0.97;;;11.70;99.90;;;;;;5092808;28;20546;-81
2021/01/29 10:25:56;;;;;;;2.67;1.10;;;11.60;99.90;;;;;;5092796;28;20478;-82
2021/01/29 10:28:35;;;;;;;3.33;1.10;;;11.50;99.90;;;;;;5092482;28;20494;-82
2021/01/29 10:31:05;;;;;;;6.53;1.60;;;11.50;99.90;;;;;;5089822;28;20450;-82
2021/01/29 10:33:34;;;;;;;5.40;1.90;;;11.60;99.90;;;;;;5092684;28;20530;-85
2021/01/29 10:36:03;;;;;;;5.27;1.30;;;11.80;99.90;;;;;;5091311;28;20474;-79
2021/01/29 10:38:38;;;;;;;1.23;1.00;;;11.80;99.90;;;;;;5040320;28;20526;-90
2021/01/29 10:41:14;;;;;;;5.10;1.30;;;11.90;99.90;;;;;;5090013;28;20581;-89
2021/01/29 10:43:48;;;;;;;3.13;0.93;;;12.10;99.90;;;;;;5092861;28;20600;-82
2021/01/29 10:46:57;;;;;;;14.10;1.50;;;12.10;99.80;;;;;;5092875;28;20542;-81
2021/01/29 10:49:34;;;;;;;7.40;1.87;;;12.10;99.30;;;;;;5091832;28;20545;-86
2021/01/29 10:52:11;;;;;;;1.93;0.87;;;12.40;99.70;;;;;;5092534;28;21017;-85
2021/01/29 10:54:40;;;;;;;2.30;1.80;;;12.50;99.70;;;;;;5091878;28;20512;-86
2021/01/29 10:57:16;;;;;;;1.27;0.83;;;12.60;97.90;;;;;;5092563;28;20456;-86
2021/01/29 10:59:50;;;;;;;3.97;1.50;;;12.50;98.10;;;;;;5091797;28;21030;-84
2021/01/29 11:02:27;;;;;;;4.97;1.90;;;12.70;98.20;;;;;;5092535;28;20292;-87
2021/01/29 11:04:58;;;;;;;1.97;1.00;;;12.70;97.70;;;;;;5091610;28;21164;-88
2021/01/29 11:07:28;;;;;;;1.53;1.13;;;12.60;97.60;;;;;;5092972;28;20447;-87
2021/01/29 11:10:04;;;;;;;3.13;0.70;;;12.60;97.00;;;;;;5093010;28;20494;-80
2021/01/29 11:12:35;;;;;;;3.70;1.47;;;12.60;97.30;;;;;;5093007;28;20465;-80
2021/01/29 11:15:14;;;;;;;1.17;0.90;;;12.30;98.00;;;;;;5093054;28;20458;-81
2021/01/29 11:17:49;;;;;;;1.57;0.77;;;12.30;97.70;;;;;;5092589;28;20450;-84
2021/01/29 11:20:20;;;;;;;5.63;0.87;;;12.40;98.30;;;;;;5093111;28;20493;-85
2021/01/29 11:22:56;;;;;;;3.40;1.40;;;12.70;98.70;;;;;;5094066;28;20535;-81
2021/01/29 11:25:54;;;;;;;2.00;1.67;;;12.80;98.20;;;;;;5094425;28;20505;-85
2021/01/29 11:28:44;;;;;;;6.40;1.20;;;12.80;98.00;;;;;;5095473;28;20485;-82
2021/01/29 11:31:16;;;;;;;2.25;1.20;;;12.40;98.20;;;;;;5095376;28;20532;-85
2021/01/29 11:33:46;;;;;;;2.50;1.03;;;12.30;98.80;;;;;;5098021;28;20222;-85
2021/01/29 11:36:26;;;;;;;1.47;1.20;;;12.20;98.40;;;;;;5097206;28;20444;-86
2021/01/29 11:39:00;;;;;;;3.20;1.10;;;11.90;98.60;;;;;;5099048;28;20454;-90
2021/01/29 11:41:36;;;;;;;4.57;1.40;;;12.00;98.80;;;;;;5100558;28;20572;-88
2021/01/29 11:44:12;;;;;;;5.40;2.10;;;12.10;99.20;;;;;;5116615;28;20467;-84
2021/01/29 11:46:48;;;;;;;1.93;1.00;;;12.20;99.30;;;;;;5117042;28;20456;-85
2021/01/29 11:49:18;;;;;;;2.57;0.80;;;12.20;98.90;;;;;;5103618;28;20510;-87
2021/01/29 11:51:56;;;;;;;2.97;1.07;;;12.00;98.40;;;;;;5097512;28;21014;-80
2021/01/29 11:54:37;;;;;;;2.90;0.97;;;12.10;99.10;;;;;;5096103;28;20476;-85
2021/01/29 11:57:08;;;;;;;4.97;1.20;;;12.00;98.80;;;;;;5091177;28;20578;-84
2021/01/29 11:59:49;;;;;;;5.33;1.10;;;12.20;99.00;;;;;;5080522;28;20510;-87
2021/01/29 12:02:30;;;;;;;2.80;1.27;;;12.20;98.80;;;;;;5074638;28;20530;-84
2021/01/29 12:05:08;;;;;;;1.23;0.80;;;12.10;98.80;;;;;;5074871;28;20956;-86
2021/01/29 12:07:40;;;;;;;0.80;0.80;;;12.00;98.80;;;;;;5077241;28;20495;-79
2021/01/29 12:10:13;;;;;;;3.80;0.90;;;11.80;99.40;;;;;;5075293;28;20443;-85
2021/01/29 12:12:51;;;;;;;1.60;0.80;;;11.70;99.60;;;;;;5075168;28;20963;-82
2021/01/29 12:15:25;;;;;;;2.30;0.73;;;11.60;99.90;;;;;;5075480;28;20447;-85
2021/01/29 12:17:57;;;;;;;0.80;0.80;;;11.60;99.90;;;;;;5075494;28;20546;-90
2021/01/29 12:20:28;;;;;;;1.23;0.90;;;11.50;99.90;;;;;;5071983;28;20514;-80
2021/01/29 12:23:07;;;;;;;2.57;0.83;;;11.50;99.90;;;;;;5090770;28;20463;-83
2021/01/29 12:25:53;;;;;;;5.43;1.40;;;11.60;99.90;;;;;;5095594;28;20447;-90
2021/01/29 12:28:48;;;;;;;1.40;1.30;;;11.70;99.80;;;;;;5095386;28;20458;-88
2021/01/29 12:31:28;;;;;;;0.80;0.70;;;11.60;99.20;;;;;;5095360;28;20459;-88
2021/01/29 12:33:58;;;;;;;2.33;0.70;;;11.60;99.10;;;;;;5095342;28;20442;-83
2021/01/29 12:36:28;;;;;;;2.93;1.40;;;11.60;99.30;;;;;;5094332;28;20473;-87
2021/01/29 12:39:02;;;;;;;8.27;1.10;;;11.60;98.90;;;;;;5095910;28;20477;-88
2021/01/29 12:41:39;;;;;;;2.67;1.10;;;11.70;99.10;;;;;;5095147;28;20590;-89
2021/01/29 12:44:25;;;;;;;0.83;0.63;;;11.90;98.90;;;;;;5095641;28;20465;-93
2021/01/29 12:47:03;;;;;;;4.03;0.97;;;12.10;98.20;;;;;;5093056;28;20452;-86
2021/01/29 12:49:41;;;;;;;2.03;1.20;;;11.80;98.10;;;;;;5094063;28;20455;-85
2021/01/29 12:52:20;;;;;;;3.97;1.43;;;11.60;98.30;;;;;;5094937;28;20525;-87
2021/01/29 12:54:56;;;;;;;7.23;1.33;;;11.40;99.30;;;;;;5091501;28;20451;-86
2021/01/29 12:57:25;;;;;;;3.93;0.70;;;11.30;99.40;;;;;;5061270;28;20446;-87
2021/01/29 12:59:59;;;;;;;1.23;0.90;;;11.30;99.80;;;;;;5094834;28;20577;-90
2021/01/29 13:02:48;;;;;;;3.00;1.13;;;11.20;99.90;;;;;;5094728;28;20348;-86
2021/01/29 13:05:27;;;;;;;4.38;1.50;;;11.10;99.90;;;;;;5075513;28;20762;-85
2021/01/29 13:08:08;;;;;;;1.17;0.93;;;11.10;99.90;;;;;;5074254;28;20605;-83
2021/01/29 13:10:40;;;;;;;3.00;1.43;;;11.10;99.90;;;;;;5073647;28;21018;-86
2021/01/29 13:13:17;;;;;;;2.67;0.80;;;11.20;99.90;;;;;;5073601;28;20589;-86
2021/01/29 13:15:55;;;;;;;1.70;0.70;;;11.20;99.90;;;;;;5074273;28;20447;-88
2021/01/29 13:18:26;;;;;;;1.10;1.00;;;11.30;99.90;;;;;;5074704;28;20447;-89
2021/01/29 13:21:05;;;;;;;1.10;0.90;;;11.20;99.90;;;;;;5082968;28;20491;-90
2021/01/29 13:23:39;;;;;;;2.60;0.77;;;11.20;99.90;;;;;;5099647;28;20442;-92
2021/01/29 13:26:08;;;;;;;1.57;0.83;;;11.20;99.90;;;;;;5097590;28;20439;-87
2021/01/29 13:28:37;;;;;;;2.60;0.60;;;11.00;99.90;;;;;;5094466;28;20803;-90
2021/01/29 13:31:20;;;;;;;3.07;1.23;;;11.20;99.90;;;;;;5093630;28;20504;-82
2021/01/29 13:33:53;;;;;;;1.43;0.63;;;11.20;99.90;;;;;;5093749;28;20446;-84
2021/01/29 13:36:25;;;;;;;1.57;0.80;;;11.30;99.90;;;;;;5092462;28;20596;-87
2021/01/29 13:38:52;;;;;;;0.80;0.80;;;11.20;99.90;;;;;;5093727;28;20545;-87
2021/01/29 13:41:23;;;;;;;1.33;0.73;;;11.00;99.90;;;;;;5093682;28;21006;-86
2021/01/29 13:43:51;;;;;;;0.60;0.60;;;11.00;99.90;;;;;;5093871;28;20458;-88
2021/01/29 13:46:26;;;;;;;3.93;1.27;;;11.00;99.90;;;;;;5092457;28;20467;-88
2021/01/29 13:49:12;;;;;;;0.87;0.83;;;11.00;99.90;;;;;;5093578;28;20447;-87
2021/01/29 13:51:39;;;;;;;0.57;0.57;;;11.20;99.90;;;;;;5091973;28;20953;-85
2021/01/29 13:54:13;;;;;;;2.30;0.97;;;11.20;99.90;;;;;;5093652;28;20450;-90